createdAt,value
2022-11-20T00:01:40.407Z,5.09
2022-11-20T00:04:10.034Z,5.10
2022-11-20T00:06:38.350Z,5.09
2022-11-20T00:09:07.187Z,5.09
2022-11-20T00:11:37.301Z,5.09
2022-11-20T00:14:06.053Z,5.06
2022-11-20T00:16:35.449Z,5.04
2022-11-20T00:19:04.388Z,5.02
2022-11-20T00:21:33.625Z,5.01
2022-11-20T00:24:02.081Z,5.01
2022-11-20T00:26:31.287Z,4.99
2022-11-20T00:29:03.470Z,4.99
2022-11-20T00:31:34.022Z,5.02
2022-11-20T00:34:02.297Z,5.03
2022-11-20T00:36:34.563Z,5.04
2022-11-20T00:39:02.894Z,5.04
2022-11-20T00:41:32.327Z,5.04
2022-11-20T00:44:02.312Z,5.03
2022-11-20T00:46:31.255Z,5.03
2022-11-20T00:48:59.957Z,5.01
2022-11-20T00:51:29.371Z,4.96
2022-11-20T00:53:58.672Z,4.96
2022-11-20T00:56:29.614Z,4.96
2022-11-20T00:59:00.752Z,4.97
2022-11-20T01:01:31.653Z,4.98
2022-11-20T01:04:02.103Z,4.98
2022-11-20T01:06:32.653Z,5.00
2022-11-20T01:09:04.993Z,4.99
2022-11-20T01:11:36.192Z,4.97
2022-11-20T01:14:07.833Z,4.99
2022-11-20T01:16:40.328Z,4.98
2022-11-20T01:19:17.497Z,4.99
2022-11-20T01:21:50.231Z,4.97
2022-11-20T01:24:21.039Z,4.99
2022-11-20T01:26:51.652Z,4.98
2022-11-20T01:29:23.471Z,4.99
2022-11-20T01:31:54.131Z,4.97
2022-11-20T01:34:24.244Z,4.96
2022-11-20T01:36:53.753Z,4.95
2022-11-20T01:39:26.950Z,4.93
2022-11-20T01:42:14.232Z,4.93
2022-11-20T01:44:56.943Z,4.89
2022-11-20T01:47:34.066Z,4.89
2022-11-20T01:50:08.239Z,4.87
2022-11-20T01:52:43.214Z,4.86
2022-11-20T01:55:16.670Z,4.89
2022-11-20T01:57:47.726Z,4.88
2022-11-20T02:00:19.604Z,4.91
2022-11-20T02:02:55.872Z,4.91
2022-11-20T02:05:31.162Z,4.92
2022-11-20T02:08:01.284Z,4.94
2022-11-20T02:10:30.559Z,4.95
2022-11-20T02:13:16.727Z,4.92
2022-11-20T02:15:45.583Z,4.87
2022-11-20T02:18:18.729Z,4.85
2022-11-20T02:20:50.032Z,4.78
2022-11-20T02:23:26.789Z,4.82
2022-11-20T02:25:57.831Z,4.80
2022-11-20T02:28:26.807Z,4.80
2022-11-20T02:30:55.127Z,4.78
2022-11-20T02:33:23.402Z,4.78
2022-11-20T02:35:51.918Z,4.75
2022-11-20T02:38:20.522Z,4.72
2022-11-20T02:40:54.107Z,4.68
2022-11-20T02:43:25.241Z,4.77
2022-11-20T02:45:53.582Z,4.75
2022-11-20T02:48:23.666Z,4.73
2022-11-20T02:50:53.763Z,4.76
2022-11-20T02:53:22.085Z,4.80
2022-11-20T02:55:50.311Z,4.88
2022-11-20T02:58:18.716Z,4.85
2022-11-20T03:00:48.344Z,4.81
2022-11-20T03:03:16.624Z,4.83
2022-11-20T03:05:44.940Z,4.84
2022-11-20T03:08:13.237Z,4.84
2022-11-20T03:10:41.515Z,4.85
2022-11-20T03:13:09.964Z,4.87
2022-11-20T03:15:38.707Z,4.86
2022-11-20T03:18:08.574Z,4.88
2022-11-20T03:20:37.179Z,4.85
2022-11-20T03:23:05.658Z,4.85
2022-11-20T03:25:34.113Z,4.90
2022-11-20T03:28:02.439Z,4.90
2022-11-20T03:30:31.182Z,4.88
2022-11-20T03:32:59.477Z,4.86
2022-11-20T03:35:29.295Z,4.81
2022-11-20T03:37:57.671Z,4.83
2022-11-20T03:40:26.014Z,4.77
2022-11-20T03:42:54.373Z,4.83
2022-11-20T03:45:23.000Z,4.78
2022-11-20T03:47:51.404Z,4.87
2022-11-20T03:50:19.831Z,4.84
2022-11-20T03:52:49.553Z,4.82
2022-11-20T03:55:17.959Z,4.84
2022-11-20T03:57:46.263Z,4.84
2022-11-20T04:00:16.449Z,4.86
2022-11-20T04:02:44.819Z,4.86
2022-11-20T04:05:13.178Z,4.84
2022-11-20T04:07:41.657Z,4.83
2022-11-20T04:10:11.665Z,4.83
2022-11-20T04:12:39.956Z,4.89
2022-11-20T04:15:09.286Z,4.88
2022-11-20T04:17:37.545Z,4.84
2022-11-20T04:20:07.332Z,4.87
2022-11-20T04:22:35.605Z,4.88
2022-11-20T04:25:04.386Z,4.88
2022-11-20T04:27:34.196Z,4.89
2022-11-20T04:30:02.476Z,4.89
2022-11-20T04:32:31.007Z,4.81
2022-11-20T04:34:59.400Z,4.83
2022-11-20T04:37:27.845Z,4.84
2022-11-20T04:39:56.338Z,4.83
2022-11-20T04:42:30.952Z,4.89
2022-11-20T04:45:00.920Z,4.82
2022-11-20T04:47:29.387Z,4.80
2022-11-20T04:49:57.789Z,4.82
2022-11-20T04:52:26.173Z,4.79
2022-11-20T04:54:54.821Z,4.77
2022-11-20T04:57:23.291Z,4.83
2022-11-20T04:59:51.592Z,4.80
2022-11-20T05:02:21.946Z,4.84
2022-11-20T05:04:50.220Z,4.79
2022-11-20T05:07:18.960Z,4.81
2022-11-20T05:09:47.300Z,4.78
2022-11-20T05:12:15.706Z,4.79
2022-11-20T05:14:44.171Z,4.76
2022-11-20T05:17:13.566Z,4.74
2022-11-20T05:19:43.360Z,4.75
2022-11-20T05:22:11.583Z,4.74
2022-11-20T05:24:40.020Z,4.68
2022-11-20T05:27:08.314Z,4.66
2022-11-20T05:29:36.882Z,4.73
2022-11-20T05:32:06.712Z,4.77
2022-11-20T05:34:35.272Z,4.78
2022-11-20T05:37:05.143Z,4.87
2022-11-20T05:39:33.611Z,4.78
2022-11-20T05:42:19.587Z,4.82
2022-11-20T05:44:48.177Z,4.96
2022-11-20T05:47:16.404Z,5.03
2022-11-20T05:49:44.930Z,5.04
2022-11-20T05:52:14.583Z,4.96
2022-11-20T05:54:42.850Z,5.00
2022-11-20T05:57:11.540Z,5.02
2022-11-20T05:59:39.853Z,4.97
2022-11-20T06:02:08.330Z,4.97
2022-11-20T06:04:36.591Z,4.95
2022-11-20T06:07:06.527Z,5.01
2022-11-20T06:09:36.394Z,5.03
2022-11-20T06:12:05.284Z,5.00
2022-11-20T06:14:33.698Z,5.03
2022-11-20T06:17:02.305Z,5.01
2022-11-20T06:19:30.630Z,5.02
2022-11-20T06:21:59.002Z,5.02
2022-11-20T06:24:27.505Z,5.04
2022-11-20T06:26:57.512Z,5.03
2022-11-20T06:29:28.865Z,5.04
2022-11-20T06:32:00.973Z,5.06
2022-11-20T06:34:29.373Z,5.08
2022-11-20T06:36:57.638Z,5.10
2022-11-20T06:39:25.964Z,5.06
2022-11-20T06:41:58.616Z,5.08
2022-11-20T06:44:28.848Z,5.07
2022-11-20T06:46:57.201Z,5.08
2022-11-20T06:49:26.231Z,5.10
2022-11-20T06:51:54.630Z,5.07
2022-11-20T06:54:22.941Z,5.07
2022-11-20T06:56:51.533Z,5.09
2022-11-20T06:59:20.513Z,5.07
2022-11-20T07:01:50.383Z,5.09
2022-11-20T07:04:18.701Z,5.11
2022-11-20T07:06:46.940Z,5.09
2022-11-20T07:09:15.573Z,5.14
2022-11-20T07:11:43.874Z,5.17
2022-11-20T07:14:12.350Z,5.15
2022-11-20T07:16:40.609Z,5.20
2022-11-20T07:19:10.360Z,5.19
2022-11-20T07:21:38.815Z,5.23
2022-11-20T07:24:07.520Z,5.27
2022-11-20T07:26:36.495Z,5.28
2022-11-20T07:29:04.930Z,5.26
2022-11-20T07:31:33.567Z,5.26
2022-11-20T07:34:01.937Z,5.30
2022-11-20T07:36:31.600Z,5.33
2022-11-20T07:39:00.156Z,5.36
2022-11-20T07:41:28.615Z,5.34
2022-11-20T07:43:57.083Z,5.37
2022-11-20T07:46:25.557Z,5.43
2022-11-20T07:48:54.552Z,5.40
2022-11-20T07:51:23.308Z,5.49
2022-11-20T07:53:54.610Z,5.52
2022-11-20T07:56:23.024Z,5.48
2022-11-20T07:58:51.702Z,5.45
2022-11-20T08:01:20.269Z,5.46
2022-11-20T08:03:48.869Z,5.55
2022-11-20T08:06:17.437Z,5.57
2022-11-20T08:08:45.989Z,5.56
2022-11-20T08:11:33.480Z,5.56
2022-11-20T08:14:14.625Z,5.53
2022-11-20T08:16:45.568Z,5.57
2022-11-20T08:19:15.071Z,5.59
2022-11-20T08:21:43.791Z,5.65
2022-11-20T08:24:12.726Z,5.66
2022-11-20T08:26:43.546Z,5.59
2022-11-20T08:29:12.137Z,5.64
2022-11-20T08:31:40.677Z,5.72
2022-11-20T08:34:10.283Z,5.75
2022-11-20T08:36:39.925Z,5.77
2022-11-20T08:39:08.375Z,5.77
2022-11-20T08:41:37.726Z,5.80
2022-11-20T08:44:09.689Z,5.79
2022-11-20T08:46:42.070Z,5.83
2022-11-20T08:49:12.981Z,5.91
2022-11-20T08:51:42.157Z,5.90
2022-11-20T08:54:13.451Z,5.93
2022-11-20T08:56:41.957Z,5.98
2022-11-20T08:59:36.912Z,6.04
2022-11-20T09:02:00.485Z,6.04
2022-11-20T09:04:28.889Z,6.04
2022-11-20T09:06:57.482Z,6.12
2022-11-20T09:09:26.028Z,6.16
2022-11-20T09:11:54.748Z,6.15
2022-11-20T09:14:25.724Z,6.27
2022-11-20T09:16:54.225Z,6.30
2022-11-20T09:19:37.748Z,6.27
2022-11-20T09:22:06.315Z,6.32
2022-11-20T09:24:34.986Z,6.43
2022-11-20T09:27:07.497Z,6.41
2022-11-20T09:29:37.513Z,6.41
2022-11-20T09:32:07.206Z,6.38
2022-11-20T09:34:35.681Z,6.43
2022-11-20T09:37:06.471Z,6.47
2022-11-20T09:39:39.721Z,6.44
2022-11-20T09:42:36.404Z,6.46
2022-11-20T09:45:21.211Z,6.46
2022-11-20T09:48:06.908Z,6.42
2022-11-20T09:50:42.803Z,6.41
2022-11-20T09:53:22.695Z,6.39
2022-11-20T09:55:51.274Z,6.43
2022-11-20T09:58:33.050Z,6.48
2022-11-20T10:01:12.846Z,6.49
2022-11-20T10:03:53.891Z,6.50
2022-11-20T10:06:31.182Z,6.40
2022-11-20T10:09:14.409Z,6.34
2022-11-20T10:11:53.255Z,6.28
2022-11-20T10:14:36.748Z,6.20
2022-11-20T10:17:20.678Z,6.18
2022-11-20T10:20:04.904Z,6.10
2022-11-20T10:22:49.442Z,6.13
2022-11-20T10:25:20.471Z,6.15
2022-11-20T10:28:09.833Z,6.15
2022-11-20T10:30:42.484Z,6.18
2022-11-20T10:33:20.466Z,6.12
2022-11-20T10:35:55.451Z,6.07
2022-11-20T10:38:28.536Z,6.12
2022-11-20T10:41:21.018Z,6.09
2022-11-20T10:43:54.248Z,6.12
2022-11-20T10:46:24.730Z,6.05
2022-11-20T10:48:54.532Z,6.02
2022-11-20T10:51:37.955Z,5.98
2022-11-20T10:54:23.650Z,5.98
2022-11-20T10:56:55.252Z,5.93
2022-11-20T10:59:44.345Z,5.95
2022-11-20T11:02:20.038Z,5.92
2022-11-20T11:04:52.647Z,5.90
2022-11-20T11:07:26.754Z,5.88
2022-11-20T11:09:58.334Z,5.92
2022-11-20T11:12:30.264Z,5.97
2022-11-20T11:14:59.962Z,5.96
2022-11-20T11:17:31.846Z,6.01
2022-11-20T11:20:08.996Z,6.02
2022-11-20T11:22:47.596Z,6.09
2022-11-20T11:25:46.835Z,6.03
2022-11-20T11:28:30.972Z,5.99
2022-11-20T11:31:00.131Z,6.02
2022-11-20T11:33:30.863Z,6.16
2022-11-20T11:36:04.241Z,6.33
2022-11-20T11:38:38.116Z,6.67
2022-11-20T11:41:08.538Z,6.92
2022-11-20T11:43:56.946Z,7.24
2022-11-20T11:46:33.782Z,7.52
2022-11-20T11:49:11.349Z,7.67
2022-11-20T11:51:55.154Z,7.81
2022-11-20T11:54:29.008Z,8.01
2022-11-20T11:57:01.263Z,8.11
2022-11-20T11:59:44.000Z,8.25
2022-11-20T12:02:35.295Z,8.26
2022-11-20T12:05:17.910Z,8.20
2022-11-20T12:07:50.409Z,8.09
2022-11-20T12:10:25.179Z,7.91
2022-11-20T12:13:06.623Z,7.82
2022-11-20T12:15:36.930Z,7.90
2022-11-20T12:18:17.025Z,8.02
2022-11-20T12:20:57.648Z,8.17
2022-11-20T12:23:32.711Z,8.41
2022-11-20T12:26:03.470Z,8.78
2022-11-20T12:28:54.132Z,9.06
2022-11-20T12:31:51.978Z,9.32
2022-11-20T12:34:37.808Z,9.40
2022-11-20T12:37:16.703Z,9.47
2022-11-20T12:39:51.902Z,9.55
2022-11-20T12:42:55.349Z,9.63
2022-11-20T12:45:56.719Z,9.65
2022-11-20T12:48:58.714Z,9.78
2022-11-20T12:51:53.659Z,9.82
2022-11-20T12:54:56.593Z,9.84
2022-11-20T12:57:33.603Z,9.89
2022-11-20T13:00:14.983Z,10.00
2022-11-20T13:03:20.303Z,10.20
2022-11-20T13:05:58.328Z,10.26
2022-11-20T13:08:29.412Z,10.12
2022-11-20T13:11:09.517Z,10.00
2022-11-20T13:13:50.337Z,9.72
2022-11-20T13:16:24.795Z,9.44
2022-11-20T13:18:53.420Z,9.24
2022-11-20T13:21:25.087Z,9.09
2022-11-20T13:23:53.417Z,9.11
2022-11-20T13:26:25.304Z,9.00
2022-11-20T13:29:06.955Z,8.92
2022-11-20T13:31:37.459Z,8.95
2022-11-20T13:34:08.518Z,9.25
2022-11-20T13:36:37.623Z,9.57
2022-11-20T13:39:06.220Z,9.96
2022-11-20T13:41:40.509Z,10.42
2022-11-20T13:44:16.800Z,10.47
2022-11-20T13:46:47.415Z,10.45
2022-11-20T13:49:25.511Z,10.34
2022-11-20T13:52:04.913Z,10.02
2022-11-20T13:55:02.821Z,9.79
2022-11-20T13:57:55.201Z,9.55
2022-11-20T14:00:26.018Z,9.46
2022-11-20T14:03:17.978Z,9.27
2022-11-20T14:05:53.931Z,9.04
2022-11-20T14:08:34.748Z,8.81
2022-11-20T14:11:14.035Z,8.87
2022-11-20T14:13:58.758Z,8.86
2022-11-20T14:16:30.660Z,8.78
2022-11-20T14:22:25.021Z,8.95
2022-11-20T14:25:07.532Z,8.98
2022-11-20T14:27:39.677Z,8.80
2022-11-20T14:30:17.285Z,8.60
2022-11-20T14:32:47.416Z,8.51
2022-11-20T14:35:23.906Z,8.36
2022-11-20T14:37:52.913Z,8.40
2022-11-20T14:40:30.739Z,8.39
2022-11-20T14:43:01.181Z,8.39
2022-11-20T14:45:31.380Z,8.33
2022-11-20T14:48:00.767Z,8.18
2022-11-20T14:50:31.345Z,8.17
2022-11-20T14:53:01.635Z,8.14
2022-11-20T14:55:33.671Z,8.11
2022-11-20T14:58:05.360Z,8.06
2022-11-20T15:00:38.262Z,8.05
2022-11-20T15:03:18.173Z,7.99
2022-11-20T15:05:49.726Z,7.98
2022-11-20T15:08:19.415Z,7.95
2022-11-20T15:10:53.006Z,7.94
2022-11-20T15:13:32.525Z,7.77
2022-11-20T15:16:04.757Z,7.72
2022-11-20T15:18:38.893Z,7.75
2022-11-20T15:21:15.174Z,7.75
2022-11-20T15:23:43.861Z,7.67
2022-11-20T15:26:19.652Z,7.64
2022-11-20T15:28:51.218Z,7.66
2022-11-20T15:31:24.746Z,7.59
2022-11-20T15:33:53.326Z,7.56
2022-11-20T15:36:21.727Z,7.54
2022-11-20T15:38:50.593Z,7.53
2022-11-20T15:41:19.300Z,7.49
2022-11-20T15:43:47.985Z,7.51
2022-11-20T15:46:18.378Z,7.45
2022-11-20T15:48:53.902Z,7.47
2022-11-20T15:51:29.570Z,7.44
2022-11-20T15:53:59.140Z,7.39
2022-11-20T15:56:28.071Z,7.33
2022-11-20T15:58:56.385Z,7.25
2022-11-20T16:01:25.051Z,7.23
2022-11-20T16:03:54.933Z,7.20
2022-11-20T16:06:23.571Z,7.23
2022-11-20T16:08:52.293Z,7.08
2022-11-20T16:11:20.986Z,7.09
2022-11-20T16:14:06.441Z,7.10
2022-11-20T16:16:36.660Z,7.05
2022-11-20T16:19:07.185Z,7.00
2022-11-20T16:21:35.818Z,7.03
2022-11-20T16:24:07.442Z,6.98
2022-11-20T16:26:36.139Z,6.96
2022-11-20T16:29:06.500Z,6.95
2022-11-20T16:31:35.938Z,6.86
2022-11-20T16:34:12.447Z,6.91
2022-11-20T16:36:42.941Z,6.89
2022-11-20T16:39:11.896Z,6.88
2022-11-20T16:41:40.428Z,6.86
2022-11-20T16:44:12.462Z,6.78
2022-11-20T16:46:41.794Z,6.86
2022-11-20T16:49:15.168Z,6.84
2022-11-20T16:51:43.779Z,6.80
2022-11-20T16:54:16.338Z,6.81
2022-11-20T16:56:47.914Z,6.76
2022-11-20T16:59:16.426Z,6.81
2022-11-20T17:01:44.971Z,6.79
2022-11-20T17:04:14.874Z,6.81
2022-11-20T17:06:45.407Z,6.75
2022-11-20T17:09:14.018Z,6.79
2022-11-20T17:11:42.806Z,6.79
2022-11-20T17:14:13.256Z,6.79
2022-11-20T17:16:43.131Z,6.77
2022-11-20T17:19:11.558Z,6.78
2022-11-20T17:21:41.479Z,6.74
2022-11-20T17:24:12.523Z,6.75
2022-11-20T17:26:43.351Z,6.78
2022-11-20T17:29:14.426Z,6.75
2022-11-20T17:31:44.129Z,6.73
2022-11-20T17:34:16.221Z,6.76
2022-11-20T17:36:46.581Z,6.77
2022-11-20T17:39:16.597Z,6.74
2022-11-20T17:42:06.035Z,6.69
2022-11-20T17:44:35.173Z,6.73
2022-11-20T17:47:03.735Z,6.70
2022-11-20T17:49:32.041Z,6.61
2022-11-20T17:52:01.816Z,6.65
2022-11-20T17:54:30.092Z,6.64
2022-11-20T17:57:16.395Z,6.63
2022-11-20T17:59:44.743Z,6.69
2022-11-20T18:02:13.074Z,6.66
2022-11-20T18:04:41.438Z,6.71
2022-11-20T18:07:11.128Z,6.72
2022-11-20T18:09:39.539Z,6.64
2022-11-20T18:12:08.410Z,6.62
2022-11-20T18:14:37.141Z,6.65
2022-11-20T18:17:08.784Z,6.62
2022-11-20T18:19:47.744Z,6.70
2022-11-20T18:22:25.323Z,6.66
2022-11-20T18:24:53.886Z,6.70
2022-11-20T18:27:23.897Z,6.65
2022-11-20T18:29:52.727Z,6.64
2022-11-20T18:32:22.126Z,6.65
2022-11-20T18:34:51.433Z,6.63
2022-11-20T18:37:20.836Z,6.60
2022-11-20T18:39:50.624Z,6.58
2022-11-20T18:42:41.979Z,6.65
2022-11-20T18:45:10.960Z,6.67
2022-11-20T18:47:40.210Z,6.56
2022-11-20T18:50:10.843Z,6.58
2022-11-20T18:52:44.525Z,6.60
2022-11-20T18:55:15.201Z,6.45
2022-11-20T18:57:43.930Z,6.48
2022-11-20T19:00:15.020Z,6.40
2022-11-20T19:02:43.981Z,6.08
2022-11-20T19:05:13.884Z,6.00
2022-11-20T19:07:42.838Z,5.89
2022-11-20T19:10:12.171Z,5.84
2022-11-20T19:12:42.296Z,5.76
2022-11-20T19:15:12.033Z,5.73
2022-11-20T19:17:40.769Z,5.74
2022-11-20T19:20:10.480Z,5.71
2022-11-20T19:22:39.039Z,5.72
2022-11-20T19:25:09.078Z,5.76
2022-11-20T19:27:37.440Z,5.82
2022-11-20T19:30:08.881Z,5.82
2022-11-20T19:32:37.221Z,5.81
2022-11-20T19:35:06.704Z,5.76
2022-11-20T19:37:35.731Z,5.73
2022-11-20T19:40:05.338Z,5.72
2022-11-20T19:42:33.916Z,5.72
2022-11-20T19:45:02.310Z,5.79
2022-11-20T19:48:00.666Z,5.71
2022-11-20T19:50:21.257Z,5.73
2022-11-20T19:52:52.007Z,5.71
2022-11-20T19:55:24.310Z,5.69
2022-11-20T19:57:52.624Z,5.66
2022-11-20T20:00:28.133Z,5.67
2022-11-20T20:03:02.288Z,5.60
2022-11-20T20:05:30.747Z,5.60
2022-11-20T20:07:59.270Z,5.57
2022-11-20T20:10:28.584Z,5.55
2022-11-20T20:12:57.102Z,5.53
2022-11-20T20:15:25.769Z,5.54
2022-11-20T20:17:54.497Z,5.59
2022-11-20T20:20:25.432Z,5.54
2022-11-20T20:22:53.724Z,5.47
2022-11-20T20:25:22.144Z,5.47
2022-11-20T20:27:50.555Z,5.39
2022-11-20T20:30:18.929Z,5.46
2022-11-20T20:32:50.713Z,5.46
2022-11-20T20:35:23.168Z,5.47
2022-11-20T20:37:51.569Z,5.38
2022-11-20T20:40:19.981Z,5.31
2022-11-20T20:42:48.295Z,5.32
2022-11-20T20:45:15.745Z,5.28
2022-11-20T20:47:44.214Z,5.26
2022-11-20T20:50:13.706Z,5.26
2022-11-20T20:52:43.540Z,5.30
2022-11-20T20:55:12.369Z,5.29
2022-11-20T20:57:41.835Z,5.27
2022-11-20T21:00:11.269Z,5.15
2022-11-20T21:02:39.705Z,5.24
2022-11-20T21:05:08.966Z,5.15
2022-11-20T21:07:58.209Z,5.19
2022-11-20T21:10:28.069Z,5.12
2022-11-20T21:12:56.308Z,5.09
2022-11-20T21:15:24.811Z,5.11
2022-11-20T21:17:53.090Z,5.10
2022-11-20T21:20:39.171Z,5.09
2022-11-20T21:23:11.221Z,5.10
2022-11-20T21:25:41.337Z,5.13
2022-11-20T21:28:13.165Z,5.06
2022-11-20T21:30:45.542Z,5.08
2022-11-20T21:33:14.134Z,5.08
2022-11-20T21:35:42.582Z,5.01
2022-11-20T21:38:10.903Z,5.01
2022-11-20T21:40:40.680Z,4.96
2022-11-20T21:43:09.075Z,4.96
2022-11-20T21:45:37.590Z,5.00
2022-11-20T21:48:07.044Z,4.89
2022-11-20T21:50:36.311Z,4.93
2022-11-20T21:53:04.612Z,4.94
2022-11-20T21:55:33.164Z,4.92
2022-11-20T21:58:02.836Z,4.94
2022-11-20T22:00:31.452Z,4.98
2022-11-20T22:03:00.084Z,4.96
2022-11-20T22:05:28.578Z,4.96
2022-11-20T22:07:57.039Z,4.94
2022-11-20T22:10:25.775Z,4.95
2022-11-20T22:13:15.569Z,4.88
2022-11-20T22:15:59.727Z,4.90
2022-11-20T22:18:28.991Z,4.91
2022-11-20T22:20:57.364Z,4.84
2022-11-20T22:23:25.889Z,4.82
2022-11-20T22:25:54.200Z,4.79
2022-11-20T22:28:22.728Z,4.87
2022-11-20T22:30:52.439Z,4.90
2022-11-20T22:33:20.811Z,4.93
2022-11-20T22:35:49.271Z,4.91
2022-11-20T22:38:17.707Z,4.96
2022-11-20T22:40:46.788Z,4.94
2022-11-20T22:43:16.148Z,4.93
2022-11-20T22:45:45.783Z,4.78
2022-11-20T22:48:15.778Z,4.73
2022-11-20T22:50:44.200Z,4.69
2022-11-20T22:53:12.557Z,4.65
2022-11-20T22:55:41.485Z,4.72
2022-11-20T22:58:09.783Z,4.76
2022-11-20T23:00:38.100Z,4.69
2022-11-20T23:03:07.165Z,4.70
2022-11-20T23:05:36.957Z,4.71
2022-11-20T23:08:05.750Z,4.75
2022-11-20T23:10:34.073Z,4.77
2022-11-20T23:13:02.417Z,4.77
2022-11-20T23:15:30.709Z,4.79
2022-11-20T23:17:59.044Z,4.79
2022-11-20T23:20:27.390Z,4.82
2022-11-20T23:22:57.250Z,4.79
2022-11-20T23:25:25.521Z,4.87
2022-11-20T23:27:55.177Z,4.84
2022-11-20T23:30:23.798Z,4.85
2022-11-20T23:32:52.136Z,4.84
2022-11-20T23:35:20.469Z,4.84
2022-11-20T23:37:48.854Z,4.83
2022-11-20T23:40:18.784Z,4.84
2022-11-20T23:43:01.132Z,4.76
2022-11-20T23:45:29.422Z,4.79
2022-11-20T23:47:58.011Z,4.79
2022-11-20T23:50:26.323Z,4.75
2022-11-20T23:52:54.773Z,4.77
2022-11-20T23:55:24.589Z,4.74
2022-11-20T23:57:53.150Z,4.77
